createdAt,value
2018-12-19T00:00:15.777Z,21.72
2018-12-19T00:00:47.373Z,21.72
2018-12-19T00:01:18.965Z,21.72
2018-12-19T00:01:50.557Z,21.72
2018-12-19T00:02:22.196Z,21.72
2018-12-19T00:02:53.797Z,21.72
2018-12-19T00:03:25.393Z,21.54
2018-12-19T00:03:56.985Z,21.71
2018-12-19T00:04:28.582Z,21.73
2018-12-19T00:05:00.175Z,21.73
2018-12-19T00:05:31.770Z,21.74
2018-12-19T00:06:03.368Z,21.73
2018-12-19T00:06:34.961Z,21.73
2018-12-19T00:07:06.540Z,21.73
2018-12-19T00:07:38.186Z,21.74
2018-12-19T00:08:09.781Z,21.74
2018-12-19T00:08:41.378Z,21.73
2018-12-19T00:09:12.983Z,21.72
2018-12-19T00:09:44.588Z,21.73
2018-12-19T00:10:16.188Z,21.76
2018-12-19T00:10:47.781Z,21.82
2018-12-19T00:11:19.374Z,21.69
2018-12-19T00:11:50.969Z,21.54
2018-12-19T00:12:22.593Z,21.44
2018-12-19T00:12:54.189Z,21.35
2018-12-19T00:13:25.779Z,21.25
2018-12-19T00:13:57.393Z,21.21
2018-12-19T00:14:29.005Z,21.23
2018-12-19T00:15:00.617Z,21.26
2018-12-19T00:15:32.227Z,21.30
2018-12-19T00:16:03.825Z,21.34
2018-12-19T00:16:35.433Z,21.36
2018-12-19T00:17:07.044Z,21.39
2018-12-19T00:17:38.666Z,21.41
2018-12-19T00:18:10.263Z,21.42
2018-12-19T00:18:41.862Z,21.43
2018-12-19T00:19:13.468Z,21.45
2018-12-19T00:19:45.065Z,21.46
2018-12-19T00:20:16.669Z,21.47
2018-12-19T00:20:48.282Z,21.46
2018-12-19T00:21:19.868Z,21.48
2018-12-19T00:21:51.475Z,21.49
2018-12-19T00:22:23.139Z,21.50
2018-12-19T00:22:54.747Z,21.49
2018-12-19T00:23:26.351Z,21.49
2018-12-19T00:23:57.951Z,21.48
2018-12-19T00:24:29.542Z,21.51
2018-12-19T00:25:01.149Z,21.51
2018-12-19T00:25:33.332Z,21.50
2018-12-19T00:26:04.925Z,21.51
2018-12-19T00:26:36.518Z,21.51
2018-12-19T00:27:08.113Z,21.49
2018-12-19T00:27:39.748Z,21.50
2018-12-19T00:28:11.352Z,21.51
2018-12-19T00:28:42.953Z,21.51
2018-12-19T00:29:14.561Z,21.50
2018-12-19T00:29:46.161Z,21.31
2018-12-19T00:30:17.754Z,21.51
2018-12-19T00:30:49.346Z,21.50
2018-12-19T00:31:20.956Z,21.50
2018-12-19T00:31:52.549Z,21.51
2018-12-19T00:32:24.185Z,21.49
2018-12-19T00:32:55.781Z,21.51
2018-12-19T00:33:27.376Z,21.52
2018-12-19T00:33:58.969Z,21.52
2018-12-19T00:34:30.614Z,21.50
2018-12-19T00:35:02.205Z,21.51
2018-12-19T00:35:33.815Z,21.50
2018-12-19T00:36:05.406Z,21.51
2018-12-19T00:36:36.998Z,21.50
2018-12-19T00:37:08.584Z,21.55
2018-12-19T00:37:40.212Z,21.55
2018-12-19T00:38:11.787Z,21.55
2018-12-19T00:38:43.383Z,21.53
2018-12-19T00:39:16.086Z,21.52
2018-12-19T00:39:46.644Z,21.50
2018-12-19T00:40:18.242Z,21.27
2018-12-19T00:40:49.829Z,21.47
2018-12-19T00:41:21.429Z,21.45
2018-12-19T00:41:53.032Z,21.43
2018-12-19T00:42:24.657Z,21.45
2018-12-19T00:42:56.254Z,21.44
2018-12-19T00:43:27.850Z,21.45
2018-12-19T00:43:59.436Z,21.46
2018-12-19T00:44:31.031Z,21.46
2018-12-19T00:45:02.632Z,21.46
2018-12-19T00:45:34.220Z,21.45
2018-12-19T00:46:05.818Z,21.46
2018-12-19T00:46:37.418Z,21.45
2018-12-19T00:47:09.013Z,21.46
2018-12-19T00:47:40.647Z,21.50
2018-12-19T00:48:12.242Z,21.54
2018-12-19T00:48:43.843Z,21.59
2018-12-19T00:49:15.451Z,21.64
2018-12-19T00:49:47.050Z,21.66
2018-12-19T00:50:18.650Z,21.68
2018-12-19T00:50:50.245Z,21.68
2018-12-19T00:51:21.856Z,21.69
2018-12-19T00:51:53.450Z,21.69
2018-12-19T00:52:25.046Z,21.70
2018-12-19T00:52:56.666Z,21.60
2018-12-19T00:53:28.260Z,21.71
2018-12-19T00:53:59.857Z,21.69
2018-12-19T00:54:31.454Z,21.68
2018-12-19T00:55:03.049Z,21.69
2018-12-19T00:55:34.641Z,21.68
2018-12-19T00:56:06.224Z,21.68
2018-12-19T00:56:37.833Z,21.67
2018-12-19T00:57:09.430Z,21.67
2018-12-19T00:57:41.064Z,21.67
2018-12-19T00:58:12.660Z,21.67
2018-12-19T00:58:44.273Z,21.66
2018-12-19T00:59:15.980Z,21.66
2018-12-19T00:59:47.595Z,21.66
2018-12-19T01:00:19.208Z,21.65
2018-12-19T01:00:50.813Z,21.65
2018-12-19T01:01:22.417Z,21.65
2018-12-19T01:01:54.017Z,21.65
2018-12-19T01:02:25.610Z,21.65
2018-12-19T01:02:57.244Z,21.65
2018-12-19T01:03:28.845Z,21.62
2018-12-19T01:04:00.447Z,21.64
2018-12-19T01:04:32.041Z,21.64
2018-12-19T01:05:03.701Z,21.65
2018-12-19T01:05:35.308Z,21.65
2018-12-19T01:06:06.909Z,21.64
2018-12-19T01:06:38.516Z,21.65
2018-12-19T01:07:10.119Z,21.65
2018-12-19T01:07:41.742Z,21.65
2018-12-19T01:08:13.348Z,21.65
2018-12-19T01:08:44.960Z,21.64
2018-12-19T01:09:16.564Z,21.64
2018-12-19T01:09:48.167Z,21.64
2018-12-19T01:10:19.780Z,21.65
2018-12-19T01:10:51.392Z,21.65
2018-12-19T01:11:23.002Z,21.64
2018-12-19T01:11:54.600Z,21.64
2018-12-19T01:12:26.198Z,21.64
2018-12-19T01:12:57.972Z,21.64
2018-12-19T01:13:29.582Z,21.65
2018-12-19T01:14:01.177Z,21.65
2018-12-19T01:14:32.803Z,21.65
2018-12-19T01:15:04.412Z,21.63
2018-12-19T01:15:36.021Z,21.66
2018-12-19T01:16:07.631Z,21.65
2018-12-19T01:16:39.235Z,21.64
2018-12-19T01:17:10.833Z,21.64
2018-12-19T01:17:42.443Z,21.63
2018-12-19T01:18:14.083Z,21.63
2018-12-19T01:18:45.703Z,21.63
2018-12-19T01:19:17.311Z,21.62
2018-12-19T01:19:48.910Z,21.62
2018-12-19T01:20:20.530Z,21.61
2018-12-19T01:20:52.137Z,21.62
2018-12-19T01:21:23.734Z,21.61
2018-12-19T01:21:55.344Z,21.60
2018-12-19T01:22:26.946Z,21.61
2018-12-19T01:22:58.542Z,21.60
2018-12-19T01:23:30.149Z,21.60
2018-12-19T01:24:01.753Z,21.60
2018-12-19T01:24:33.349Z,21.60
2018-12-19T01:25:04.960Z,21.59
2018-12-19T01:25:36.583Z,21.60
2018-12-19T01:26:08.191Z,21.60
2018-12-19T01:26:39.799Z,21.60
2018-12-19T01:27:11.408Z,21.60
2018-12-19T01:27:43.015Z,21.59
2018-12-19T01:28:14.641Z,21.60
2018-12-19T01:28:46.236Z,21.59
2018-12-19T01:29:17.833Z,21.58
2018-12-19T01:29:49.443Z,21.59
2018-12-19T01:30:21.037Z,21.58
2018-12-19T01:30:52.639Z,21.58
2018-12-19T01:31:24.223Z,21.58
2018-12-19T01:31:55.832Z,21.58
2018-12-19T01:32:27.443Z,21.58
2018-12-19T01:32:59.052Z,21.58
2018-12-19T01:33:30.663Z,21.59
2018-12-19T01:34:02.258Z,21.58
2018-12-19T01:34:33.849Z,21.57
2018-12-19T01:35:05.455Z,21.55
2018-12-19T01:35:37.063Z,21.54
2018-12-19T01:36:08.667Z,21.52
2018-12-19T01:36:40.275Z,21.52
2018-12-19T01:37:11.870Z,21.50
2018-12-19T01:37:43.484Z,21.49
2018-12-19T01:38:15.073Z,21.48
2018-12-19T01:38:46.684Z,21.46
2018-12-19T01:39:22.438Z,21.49
2018-12-19T01:39:49.925Z,21.49
2018-12-19T01:40:21.591Z,21.49
2018-12-19T01:40:53.185Z,21.53
2018-12-19T01:41:24.777Z,21.56
2018-12-19T01:41:56.384Z,21.56
2018-12-19T01:42:27.993Z,21.59
2018-12-19T01:42:59.596Z,21.59
2018-12-19T01:43:31.217Z,21.60
2018-12-19T01:44:02.835Z,21.61
2018-12-19T01:44:34.433Z,21.61
2018-12-19T01:45:06.043Z,21.60
2018-12-19T01:45:37.632Z,21.60
2018-12-19T01:46:09.232Z,21.60
2018-12-19T01:46:40.825Z,21.61
2018-12-19T01:47:12.431Z,21.60
2018-12-19T01:47:44.046Z,21.60
2018-12-19T01:48:15.656Z,21.59
2018-12-19T01:48:47.282Z,21.59
2018-12-19T01:49:18.860Z,21.58
2018-12-19T01:49:50.467Z,21.58
2018-12-19T01:50:22.051Z,21.49
2018-12-19T01:50:53.651Z,21.58
2018-12-19T01:51:25.253Z,21.58
2018-12-19T01:51:56.856Z,21.58
2018-12-19T01:52:28.441Z,21.58
2018-12-19T01:53:00.034Z,21.58
2018-12-19T01:53:31.657Z,21.59
2018-12-19T01:54:03.257Z,21.58
2018-12-19T01:54:34.917Z,21.58
2018-12-19T01:55:06.520Z,21.58
2018-12-19T01:55:38.124Z,21.58
2018-12-19T01:56:09.708Z,21.58
2018-12-19T01:56:41.323Z,21.57
2018-12-19T01:57:12.921Z,21.58
2018-12-19T01:57:44.518Z,21.59
2018-12-19T01:58:16.100Z,21.59
2018-12-19T01:58:47.811Z,21.60
2018-12-19T01:59:19.404Z,21.60
2018-12-19T01:59:51.011Z,21.59
2018-12-19T02:00:22.605Z,21.59
2018-12-19T02:00:54.192Z,21.58
2018-12-19T02:01:25.791Z,21.59
2018-12-19T02:01:57.403Z,21.59
2018-12-19T02:02:28.997Z,21.58
2018-12-19T02:03:00.667Z,21.37
2018-12-19T02:03:32.271Z,21.58
2018-12-19T02:04:03.894Z,21.57
2018-12-19T02:04:35.496Z,21.58
2018-12-19T02:05:07.094Z,21.56
2018-12-19T02:05:38.695Z,21.56
2018-12-19T02:06:10.293Z,21.56
2018-12-19T02:06:41.905Z,21.55
2018-12-19T02:07:13.516Z,21.57
2018-12-19T02:07:45.127Z,21.59
2018-12-19T02:08:16.722Z,21.42
2018-12-19T02:08:48.331Z,21.63
2018-12-19T02:09:19.958Z,21.63
2018-12-19T02:09:51.550Z,21.65
2018-12-19T02:10:23.141Z,21.65
2018-12-19T02:10:54.734Z,21.65
2018-12-19T02:11:26.331Z,21.66
2018-12-19T02:11:57.941Z,21.65
2018-12-19T02:12:29.561Z,21.65
2018-12-19T02:13:01.163Z,21.65
2018-12-19T02:13:32.777Z,21.66
2018-12-19T02:14:04.398Z,21.66
2018-12-19T02:14:36.004Z,21.66
2018-12-19T02:15:07.598Z,21.66
2018-12-19T02:15:39.203Z,21.66
2018-12-19T02:16:10.804Z,21.67
2018-12-19T02:16:42.399Z,21.68
2018-12-19T02:17:14.007Z,21.68
2018-12-19T02:17:45.601Z,21.68
2018-12-19T02:18:17.203Z,21.68
2018-12-19T02:18:48.812Z,21.66
2018-12-19T02:19:20.448Z,21.65
2018-12-19T02:19:52.046Z,21.64
2018-12-19T02:20:23.641Z,21.63
2018-12-19T02:20:55.248Z,21.60
2018-12-19T02:21:26.832Z,21.61
2018-12-19T02:21:58.442Z,21.60
2018-12-19T02:22:30.024Z,21.59
2018-12-19T02:23:01.617Z,21.58
2018-12-19T02:23:33.211Z,21.59
2018-12-19T02:24:04.836Z,21.58
2018-12-19T02:24:36.435Z,21.57
2018-12-19T02:25:08.024Z,21.57
2018-12-19T02:25:39.629Z,21.58
2018-12-19T02:26:11.228Z,21.57
2018-12-19T02:26:42.826Z,21.57
2018-12-19T02:27:14.421Z,21.56
2018-12-19T02:27:46.013Z,21.59
2018-12-19T02:28:17.669Z,21.59
2018-12-19T02:28:49.321Z,21.59
2018-12-19T02:29:20.939Z,21.59
2018-12-19T02:29:52.533Z,21.58
2018-12-19T02:30:24.136Z,21.57
2018-12-19T02:30:55.759Z,21.57
2018-12-19T02:31:27.372Z,21.56
2018-12-19T02:31:58.981Z,21.54
2018-12-19T02:32:30.573Z,21.53
2018-12-19T02:33:02.183Z,21.53
2018-12-19T02:33:33.783Z,21.53
2018-12-19T02:34:05.422Z,21.53
2018-12-19T02:34:37.057Z,21.53
2018-12-19T02:35:08.667Z,21.52
2018-12-19T02:35:40.261Z,21.51
2018-12-19T02:36:11.884Z,21.51
2018-12-19T02:36:43.495Z,21.50
2018-12-19T02:37:15.089Z,21.49
2018-12-19T02:37:46.691Z,21.49
2018-12-19T02:38:18.283Z,21.48
2018-12-19T02:38:49.896Z,21.47
2018-12-19T02:39:21.534Z,21.47
2018-12-19T02:39:53.159Z,21.47
2018-12-19T02:40:24.753Z,21.45
2018-12-19T02:40:56.350Z,21.45
2018-12-19T02:41:27.951Z,21.44
2018-12-19T02:41:59.539Z,21.44
2018-12-19T02:42:31.138Z,21.43
2018-12-19T02:43:02.725Z,21.42
2018-12-19T02:43:34.351Z,21.43
2018-12-19T02:44:05.949Z,21.43
2018-12-19T02:44:37.567Z,21.43
2018-12-19T02:45:09.193Z,21.42
2018-12-19T02:45:40.797Z,21.42
2018-12-19T02:46:12.393Z,21.28
2018-12-19T02:46:43.996Z,21.42
2018-12-19T02:47:15.603Z,21.42
2018-12-19T02:47:47.197Z,21.43
2018-12-19T02:48:18.793Z,21.41
2018-12-19T02:48:50.391Z,21.39
2018-12-19T02:49:21.985Z,21.38
2018-12-19T02:49:53.623Z,21.32
2018-12-19T02:50:25.212Z,21.40
2018-12-19T02:50:56.812Z,21.40
2018-12-19T02:51:28.416Z,21.40
2018-12-19T02:52:00.027Z,21.39
2018-12-19T02:52:31.635Z,21.40
2018-12-19T02:53:03.229Z,21.41
2018-12-19T02:53:34.874Z,21.41
2018-12-19T02:54:06.479Z,21.41
2018-12-19T02:54:38.073Z,21.42
2018-12-19T02:55:09.666Z,21.42
2018-12-19T02:55:41.258Z,21.42
2018-12-19T02:56:12.915Z,21.42
2018-12-19T02:56:44.528Z,21.40
2018-12-19T02:57:16.140Z,21.40
2018-12-19T02:57:47.738Z,21.40
2018-12-19T02:58:19.348Z,21.40
2018-12-19T02:58:50.951Z,21.39
2018-12-19T02:59:22.536Z,21.38
2018-12-19T02:59:54.145Z,21.38
2018-12-19T03:00:25.769Z,21.37
2018-12-19T03:00:57.356Z,21.37
2018-12-19T03:01:28.953Z,21.36
2018-12-19T03:02:00.553Z,21.37
2018-12-19T03:02:32.150Z,21.37
2018-12-19T03:03:03.752Z,21.35
2018-12-19T03:03:35.369Z,21.35
2018-12-19T03:04:07.006Z,21.35
2018-12-19T03:04:38.609Z,21.36
2018-12-19T03:05:10.234Z,21.38
2018-12-19T03:05:41.840Z,21.38
2018-12-19T03:06:13.452Z,21.39
2018-12-19T03:06:45.046Z,21.39
2018-12-19T03:07:16.664Z,21.41
2018-12-19T03:07:48.273Z,21.41
2018-12-19T03:08:19.874Z,21.43
2018-12-19T03:08:51.486Z,21.43
2018-12-19T03:09:23.110Z,21.43
2018-12-19T03:09:54.707Z,21.44
2018-12-19T03:10:26.320Z,21.47
2018-12-19T03:10:57.929Z,21.47
2018-12-19T03:11:29.526Z,21.49
2018-12-19T03:12:01.134Z,21.48
2018-12-19T03:12:32.745Z,21.47
2018-12-19T03:13:04.341Z,21.47
2018-12-19T03:13:35.938Z,21.46
2018-12-19T03:14:07.548Z,21.45
2018-12-19T03:14:39.161Z,21.44
2018-12-19T03:15:10.772Z,21.42
2018-12-19T03:15:42.404Z,21.42
2018-12-19T03:16:14.011Z,21.40
2018-12-19T03:16:45.605Z,21.39
2018-12-19T03:17:17.188Z,21.39
2018-12-19T03:17:48.797Z,21.39
2018-12-19T03:18:20.381Z,21.39
2018-12-19T03:18:51.989Z,21.39
2018-12-19T03:19:23.588Z,21.37
2018-12-19T03:19:55.171Z,21.37
2018-12-19T03:20:26.779Z,21.37
2018-12-19T03:20:58.390Z,21.35
2018-12-19T03:21:29.985Z,21.33
2018-12-19T03:22:01.563Z,21.32
2018-12-19T03:22:33.162Z,21.32
2018-12-19T03:23:04.748Z,21.29
2018-12-19T03:23:36.354Z,21.28
2018-12-19T03:24:07.959Z,21.27
2018-12-19T03:24:39.553Z,21.26
2018-12-19T03:25:11.166Z,21.24
2018-12-19T03:25:42.781Z,21.23
2018-12-19T03:26:14.377Z,21.21
2018-12-19T03:26:45.981Z,21.21
2018-12-19T03:27:17.578Z,21.21
2018-12-19T03:27:49.174Z,21.22
2018-12-19T03:28:20.777Z,21.24
2018-12-19T03:28:52.388Z,21.27
2018-12-19T03:29:23.986Z,21.28
2018-12-19T03:29:55.596Z,21.29
2018-12-19T03:30:27.250Z,21.30
2018-12-19T03:30:58.862Z,21.30
2018-12-19T03:31:30.477Z,21.31
2018-12-19T03:32:02.101Z,21.30
2018-12-19T03:32:33.699Z,21.31
2018-12-19T03:33:05.281Z,21.30
2018-12-19T03:33:46.955Z,21.29
2018-12-19T03:34:18.565Z,21.26
2018-12-19T03:34:50.176Z,21.28
2018-12-19T03:35:21.802Z,21.28
2018-12-19T03:35:53.404Z,21.28
2018-12-19T03:36:25.020Z,21.27
2018-12-19T03:36:56.617Z,21.28
2018-12-19T03:37:28.213Z,21.29
2018-12-19T03:37:59.796Z,21.28
2018-12-19T03:38:31.389Z,21.28
2018-12-19T03:39:02.996Z,21.29
2018-12-19T03:39:34.591Z,21.28
2018-12-19T03:40:06.206Z,21.31
2018-12-19T03:40:37.833Z,21.38
2018-12-19T03:41:09.426Z,21.48
2018-12-19T03:41:41.018Z,20.95
2018-12-19T03:42:12.611Z,20.14
2018-12-19T03:42:44.211Z,19.26
2018-12-19T03:43:15.805Z,18.64
2018-12-19T03:43:47.388Z,18.11
2018-12-19T03:44:18.973Z,17.79
2018-12-19T03:44:50.571Z,17.62
2018-12-19T03:45:22.208Z,17.36
2018-12-19T03:45:53.844Z,17.23
2018-12-19T03:46:25.456Z,17.21
2018-12-19T03:46:57.049Z,17.10
2018-12-19T03:47:28.641Z,17.04
2018-12-19T03:48:00.234Z,16.85
2018-12-19T03:48:37.412Z,16.64
2018-12-19T03:49:09.013Z,16.52
2018-12-19T03:49:40.605Z,16.44
2018-12-19T03:50:12.197Z,16.38
2018-12-19T03:50:43.804Z,16.33
2018-12-19T03:51:15.397Z,16.25
2018-12-19T03:51:46.991Z,16.24
2018-12-19T03:52:18.580Z,16.28
2018-12-19T03:52:50.182Z,16.62
2018-12-19T03:53:21.774Z,17.23
2018-12-19T03:53:53.365Z,17.73
2018-12-19T03:54:24.956Z,18.15
2018-12-19T03:54:56.564Z,18.51
2018-12-19T03:55:28.180Z,18.68
2018-12-19T03:55:59.793Z,19.05
2018-12-19T03:56:31.386Z,19.27
2018-12-19T03:57:02.986Z,19.46
2018-12-19T03:57:34.599Z,19.70
2018-12-19T03:58:06.194Z,19.96
2018-12-19T03:58:37.802Z,20.24
2018-12-19T03:59:09.402Z,20.40
2018-12-19T03:59:41.367Z,20.51
2018-12-19T04:00:12.645Z,20.01
2018-12-19T04:00:44.267Z,20.66
2018-12-19T04:01:15.876Z,20.72
2018-12-19T04:01:47.478Z,20.79
2018-12-19T04:02:19.083Z,20.85
2018-12-19T04:02:50.679Z,20.92
2018-12-19T04:03:22.269Z,20.99
2018-12-19T04:03:53.881Z,21.02
2018-12-19T04:04:25.478Z,21.08
2018-12-19T04:04:57.083Z,21.13
2018-12-19T04:05:28.717Z,21.06
2018-12-19T04:06:00.322Z,21.07
2018-12-19T04:06:31.919Z,21.11
2018-12-19T04:07:03.529Z,21.18
2018-12-19T04:07:35.120Z,21.23
2018-12-19T04:08:06.732Z,21.29
2018-12-19T04:08:38.317Z,21.34
2018-12-19T04:09:09.926Z,21.39
2018-12-19T04:09:41.528Z,21.43
2018-12-19T04:10:13.127Z,21.47
2018-12-19T04:10:44.756Z,21.50
2018-12-19T04:11:16.345Z,21.53
2018-12-19T04:11:47.945Z,21.55
2018-12-19T04:12:19.556Z,21.57
2018-12-19T04:12:51.168Z,21.63
2018-12-19T04:13:22.835Z,21.65
2018-12-19T04:13:54.434Z,21.69
2018-12-19T04:14:26.037Z,21.71
2018-12-19T04:14:57.644Z,21.75
2018-12-19T04:15:29.244Z,21.74
2018-12-19T04:16:00.868Z,21.75
2018-12-19T04:16:32.480Z,21.77
2018-12-19T04:17:04.093Z,21.78
2018-12-19T04:17:35.704Z,21.80
2018-12-19T04:18:07.287Z,21.80
2018-12-19T04:18:38.893Z,21.83
2018-12-19T04:19:10.493Z,21.85
2018-12-19T04:19:42.104Z,21.87
2018-12-19T04:20:13.717Z,21.88
2018-12-19T04:20:45.341Z,21.87
2018-12-19T04:21:16.950Z,21.89
2018-12-19T04:21:48.554Z,21.79
2018-12-19T04:22:20.165Z,21.91
2018-12-19T04:22:51.785Z,21.91
2018-12-19T04:23:23.403Z,21.92
2018-12-19T04:23:54.992Z,21.92
2018-12-19T04:24:26.609Z,21.92
2018-12-19T04:24:58.228Z,21.92
2018-12-19T04:25:29.839Z,21.91
2018-12-19T04:26:01.472Z,21.91
2018-12-19T04:26:33.088Z,21.92
2018-12-19T04:27:06.666Z,21.90
2018-12-19T04:27:38.280Z,21.89
2018-12-19T04:28:09.870Z,21.86
2018-12-19T04:28:41.478Z,21.86
2018-12-19T04:29:13.080Z,21.84
2018-12-19T04:29:44.674Z,21.83
2018-12-19T04:30:16.270Z,21.82
2018-12-19T04:30:47.896Z,21.79
2018-12-19T04:31:19.495Z,21.79
2018-12-19T04:31:51.086Z,21.77
2018-12-19T04:32:22.690Z,21.77
2018-12-19T04:32:54.301Z,21.76
2018-12-19T04:33:25.899Z,21.75
2018-12-19T04:33:57.511Z,21.74
2018-12-19T04:34:29.117Z,21.72
2018-12-19T04:35:00.726Z,21.72
2018-12-19T04:35:32.327Z,21.70
2018-12-19T04:36:04.023Z,21.67
2018-12-19T04:36:35.629Z,21.66
2018-12-19T04:37:07.222Z,21.63
2018-12-19T04:37:38.818Z,21.62
2018-12-19T04:38:10.413Z,21.62
2018-12-19T04:38:42.011Z,21.61
2018-12-19T04:39:13.602Z,21.60
2018-12-19T04:39:45.199Z,21.59
2018-12-19T04:40:16.790Z,21.58
2018-12-19T04:40:48.565Z,21.57
2018-12-19T04:41:20.160Z,21.55
2018-12-19T04:41:51.768Z,21.55
2018-12-19T04:42:23.375Z,21.54
2018-12-19T04:42:54.980Z,21.52
2018-12-19T04:43:26.563Z,21.51
2018-12-19T04:43:58.157Z,21.49
2018-12-19T04:44:29.750Z,21.47
2018-12-19T04:45:01.360Z,21.46
2018-12-19T04:45:32.947Z,21.45
2018-12-19T04:46:04.585Z,21.43
2018-12-19T04:46:36.196Z,21.44
2018-12-19T04:47:07.790Z,21.42
2018-12-19T04:47:39.398Z,21.41
2018-12-19T04:48:11.008Z,21.38
2018-12-19T04:48:42.601Z,21.37
2018-12-19T04:49:14.197Z,21.36
2018-12-19T04:49:45.802Z,21.35
2018-12-19T04:50:17.405Z,21.35
2018-12-19T04:50:49.019Z,21.31
2018-12-19T04:51:20.655Z,21.32
2018-12-19T04:51:52.257Z,21.31
2018-12-19T04:52:23.868Z,21.31
2018-12-19T04:52:55.475Z,21.27
2018-12-19T04:53:27.064Z,21.29
2018-12-19T04:53:58.705Z,21.28
2018-12-19T04:54:30.303Z,21.25
2018-12-19T04:55:01.921Z,21.26
2018-12-19T04:55:33.508Z,21.25
2018-12-19T04:56:05.130Z,21.24
2018-12-19T04:56:36.743Z,21.24
2018-12-19T04:57:08.351Z,21.22
2018-12-19T04:57:39.945Z,21.21
2018-12-19T04:58:11.527Z,21.19
2018-12-19T04:58:43.122Z,21.19
2018-12-19T04:59:14.731Z,21.18
2018-12-19T04:59:46.331Z,21.13
2018-12-19T05:00:17.922Z,21.18
2018-12-19T05:00:49.531Z,21.17
2018-12-19T05:01:21.154Z,21.16
2018-12-19T05:01:52.760Z,21.15
2018-12-19T05:02:24.365Z,21.14
2018-12-19T05:02:55.947Z,21.14
2018-12-19T05:03:27.530Z,21.12
2018-12-19T05:03:59.125Z,21.13
2018-12-19T05:04:30.720Z,21.12
2018-12-19T05:05:02.325Z,21.11
2018-12-19T05:05:33.921Z,21.10
2018-12-19T05:06:05.547Z,21.09
2018-12-19T05:06:37.127Z,21.09
2018-12-19T05:07:08.717Z,21.06
2018-12-19T05:07:40.291Z,21.07
2018-12-19T05:08:11.873Z,21.06
2018-12-19T05:08:43.522Z,21.05
2018-12-19T05:09:15.109Z,21.04
2018-12-19T05:09:46.701Z,21.04
2018-12-19T05:10:18.291Z,21.03
2018-12-19T05:10:49.899Z,21.03
2018-12-19T05:11:21.610Z,21.02
2018-12-19T05:11:53.230Z,21.01
2018-12-19T05:12:24.828Z,21.01
2018-12-19T05:12:56.422Z,20.99
2018-12-19T05:13:28.018Z,20.99
2018-12-19T05:13:59.614Z,20.97
2018-12-19T05:14:31.218Z,20.96
2018-12-19T05:15:02.813Z,20.95
2018-12-19T05:15:34.420Z,20.97
2018-12-19T05:16:06.073Z,20.95
2018-12-19T05:16:37.670Z,20.95
2018-12-19T05:17:09.280Z,20.95
2018-12-19T05:17:40.873Z,20.94
2018-12-19T05:18:12.464Z,20.93
2018-12-19T05:18:44.071Z,20.90
2018-12-19T05:19:15.727Z,20.91
2018-12-19T05:19:47.323Z,20.92
2018-12-19T05:20:18.932Z,20.91
2018-12-19T05:20:50.544Z,20.91
2018-12-19T05:21:22.212Z,20.91
2018-12-19T05:21:53.820Z,20.90
2018-12-19T05:22:25.414Z,20.89
2018-12-19T05:22:57.019Z,20.89
2018-12-19T05:23:28.628Z,20.89
2018-12-19T05:24:00.221Z,20.88
2018-12-19T05:24:31.829Z,20.86
2018-12-19T05:25:03.430Z,20.88
2018-12-19T05:25:35.045Z,20.87
2018-12-19T05:26:06.665Z,20.87
2018-12-19T05:26:38.296Z,20.87
2018-12-19T05:27:09.879Z,20.88
2018-12-19T05:27:41.492Z,20.88
2018-12-19T05:28:13.082Z,20.87
2018-12-19T05:28:44.682Z,20.85
2018-12-19T05:29:16.298Z,20.86
2018-12-19T05:29:47.895Z,20.85
2018-12-19T05:30:19.486Z,20.85
2018-12-19T05:30:51.075Z,20.84
2018-12-19T05:31:22.673Z,20.84
2018-12-19T05:31:54.269Z,20.84
2018-12-19T05:32:25.893Z,20.85
2018-12-19T05:32:57.483Z,20.84
2018-12-19T05:33:29.074Z,20.84
2018-12-19T05:34:00.665Z,20.84
2018-12-19T05:34:32.268Z,20.83
2018-12-19T05:35:03.853Z,20.82
2018-12-19T05:35:35.449Z,20.83
2018-12-19T05:36:07.042Z,20.82
2018-12-19T05:36:38.650Z,20.83
2018-12-19T05:37:10.282Z,20.83
2018-12-19T05:37:41.888Z,20.82
2018-12-19T05:38:13.478Z,20.82
2018-12-19T05:38:45.073Z,20.81
2018-12-19T05:39:16.665Z,20.80
2018-12-19T05:39:48.267Z,20.81
2018-12-19T05:40:19.865Z,20.81
2018-12-19T05:40:51.465Z,20.80
2018-12-19T05:41:23.072Z,20.72
2018-12-19T05:41:54.680Z,20.80
2018-12-19T05:42:26.267Z,20.79
2018-12-19T05:42:57.853Z,20.79
2018-12-19T05:43:29.459Z,20.79
2018-12-19T05:44:01.079Z,20.80
2018-12-19T05:44:32.680Z,20.79
2018-12-19T05:45:04.265Z,20.80
2018-12-19T05:45:35.863Z,20.80
2018-12-19T05:46:07.479Z,20.79
2018-12-19T05:46:39.073Z,20.80
2018-12-19T05:47:10.690Z,20.79
2018-12-19T05:47:42.486Z,20.79
2018-12-19T05:48:14.400Z,20.80
2018-12-19T05:48:46.102Z,20.81
2018-12-19T05:49:17.694Z,20.80
2018-12-19T05:49:49.295Z,20.80
2018-12-19T05:50:20.904Z,20.78
2018-12-19T05:50:52.501Z,20.79
2018-12-19T05:51:24.092Z,20.80
2018-12-19T05:51:55.735Z,20.80
2018-12-19T05:52:27.333Z,20.81
2018-12-19T05:52:58.929Z,20.81
2018-12-19T05:53:30.543Z,20.81
2018-12-19T05:54:02.141Z,20.81
2018-12-19T05:54:33.733Z,20.81
2018-12-19T05:55:05.321Z,20.81
2018-12-19T05:55:36.932Z,20.81
2018-12-19T05:56:08.544Z,20.80
2018-12-19T05:56:40.152Z,20.82
2018-12-19T05:57:11.797Z,20.80
2018-12-19T05:57:43.408Z,20.80
2018-12-19T05:58:15.005Z,20.80
2018-12-19T05:58:46.601Z,20.79
2018-12-19T05:59:18.216Z,20.79
2018-12-19T05:59:49.810Z,20.78
2018-12-19T06:00:21.420Z,20.79
2018-12-19T06:00:53.027Z,20.79
2018-12-19T06:01:24.633Z,20.79
2018-12-19T06:01:56.240Z,20.78
2018-12-19T06:02:27.867Z,20.79
2018-12-19T06:02:59.469Z,20.79
2018-12-19T06:03:31.121Z,20.79
2018-12-19T06:04:02.719Z,20.80
2018-12-19T06:04:34.313Z,20.80
2018-12-19T06:05:05.899Z,20.59
2018-12-19T06:05:37.509Z,20.81
2018-12-19T06:06:09.117Z,20.81
2018-12-19T06:06:40.703Z,20.81
2018-12-19T06:07:12.288Z,20.81
2018-12-19T06:07:43.881Z,20.81
2018-12-19T06:08:15.476Z,20.80
2018-12-19T06:08:47.091Z,20.80
2018-12-19T06:09:18.687Z,20.80
2018-12-19T06:09:50.278Z,20.80
2018-12-19T06:10:26.166Z,20.80
2018-12-19T06:10:53.521Z,20.81
2018-12-19T06:11:25.113Z,20.81
2018-12-19T06:11:56.701Z,20.80
2018-12-19T06:12:28.329Z,20.81
2018-12-19T06:12:59.932Z,20.81
2018-12-19T06:13:31.543Z,20.80
2018-12-19T06:14:03.137Z,20.81
2018-12-19T06:14:34.725Z,20.81
2018-12-19T06:15:06.313Z,20.81
2018-12-19T06:15:37.988Z,20.81
2018-12-19T06:16:09.595Z,20.80
2018-12-19T06:16:41.190Z,20.80
2018-12-19T06:17:12.801Z,20.80
2018-12-19T06:17:44.434Z,20.80
2018-12-19T06:18:16.036Z,20.79
2018-12-19T06:18:47.620Z,20.78
2018-12-19T06:19:19.209Z,20.80
2018-12-19T06:19:50.816Z,20.79
2018-12-19T06:20:22.427Z,20.79
2018-12-19T06:20:54.012Z,20.78
2018-12-19T06:21:25.625Z,20.78
2018-12-19T06:21:57.236Z,20.78
2018-12-19T06:22:28.867Z,20.78
2018-12-19T06:23:00.493Z,20.77
2018-12-19T06:23:32.099Z,20.79
2018-12-19T06:24:03.694Z,20.80
2018-12-19T06:24:35.276Z,20.79
2018-12-19T06:25:06.885Z,20.79
2018-12-19T06:25:38.497Z,20.78
2018-12-19T06:26:10.107Z,20.78
2018-12-19T06:26:41.687Z,20.78
2018-12-19T06:27:13.277Z,20.78
2018-12-19T06:27:44.896Z,20.78
2018-12-19T06:28:16.475Z,20.78
2018-12-19T06:28:48.066Z,20.78
2018-12-19T06:29:19.662Z,20.77
2018-12-19T06:29:51.257Z,20.77
2018-12-19T06:30:22.846Z,20.78
2018-12-19T06:30:54.427Z,20.79
2018-12-19T06:31:26.033Z,20.79
2018-12-19T06:31:57.646Z,20.79
2018-12-19T06:32:29.237Z,20.78
2018-12-19T06:33:00.871Z,20.77
2018-12-19T06:33:32.480Z,20.76
2018-12-19T06:34:04.083Z,20.76
2018-12-19T06:34:35.677Z,20.77
2018-12-19T06:35:07.283Z,20.77
2018-12-19T06:35:38.897Z,20.77
2018-12-19T06:36:10.489Z,20.77
2018-12-19T06:36:42.085Z,20.77
2018-12-19T06:37:13.681Z,20.77
2018-12-19T06:37:45.319Z,20.75
2018-12-19T06:38:16.914Z,20.76
2018-12-19T06:38:48.510Z,20.76
2018-12-19T06:39:20.103Z,20.76
2018-12-19T06:39:51.697Z,20.77
2018-12-19T06:40:23.303Z,20.77
2018-12-19T06:40:54.912Z,20.78
2018-12-19T06:41:26.520Z,20.77
2018-12-19T06:41:58.132Z,20.77
2018-12-19T06:42:29.740Z,20.78
2018-12-19T06:43:01.376Z,20.77
2018-12-19T06:43:32.970Z,20.79
2018-12-19T06:44:04.565Z,20.80
2018-12-19T06:44:36.148Z,20.80
2018-12-19T06:45:07.731Z,20.80
2018-12-19T06:45:39.322Z,20.80
2018-12-19T06:46:10.917Z,20.80
2018-12-19T06:46:42.501Z,20.77
2018-12-19T06:47:14.099Z,20.79